Time;durP1;ratioP1;P1;durP2;ratioP2;P2;SDS_P1;SDS_P2;PMS_P1;PMS_P2;Temp;Humidity;BMP_temperature;BMP_pressure;BME280_temperature;BME280_humidity;BME280_pressure;Samples;Min_cycle;Max_cycle;Signal;HPM_P1;HPM_P2
2023/08/28 00:02:15;;;;;;;4.60;1.73;;;17.50;99.90;;;;;;5003230;28;20524;-78
2023/08/28 00:04:42;;;;;;;5.88;1.70;;;17.50;99.90;;;;;;5008849;28;20061;-78
2023/08/28 00:07:09;;;;;;;2.15;1.20;;;17.50;99.90;;;;;;5006028;28;20046;-78
2023/08/28 00:09:35;;;;;;;4.45;1.17;;;17.50;99.90;;;;;;5007006;28;20601;-78
2023/08/28 00:12:02;;;;;;;3.35;1.25;;;17.40;99.90;;;;;;5009763;28;20568;-78
2023/08/28 00:14:29;;;;;;;5.15;1.55;;;17.40;99.90;;;;;;5005796;28;20065;-78
2023/08/28 00:16:56;;;;;;;3.78;1.45;;;17.40;99.90;;;;;;5001178;28;20096;-78
2023/08/28 00:19:23;;;;;;;5.57;1.42;;;17.40;99.90;;;;;;4986638;28;20050;-78
2023/08/28 00:21:49;;;;;;;3.28;1.23;;;17.40;99.90;;;;;;5006782;28;20116;-77
2023/08/28 00:24:16;;;;;;;3.13;1.27;;;17.40;99.90;;;;;;5005133;28;20050;-78
2023/08/28 00:26:43;;;;;;;3.72;1.45;;;17.40;99.90;;;;;;5007028;28;20399;-77
2023/08/28 00:29:10;;;;;;;3.53;1.40;;;17.40;99.90;;;;;;5006577;28;20046;-78
2023/08/28 00:31:37;;;;;;;3.92;1.77;;;17.40;99.90;;;;;;5003388;28;20092;-78
2023/08/28 00:34:03;;;;;;;6.85;1.55;;;17.40;99.90;;;;;;5005568;28;20065;-78
2023/08/28 00:36:30;;;;;;;3.38;1.20;;;17.40;99.90;;;;;;5010815;28;20054;-79
2023/08/28 00:38:57;;;;;;;12.35;1.75;;;17.40;99.90;;;;;;5003484;28;20193;-79
2023/08/28 00:41:24;;;;;;;2.65;1.25;;;17.40;99.90;;;;;;4987409;28;20050;-78
2023/08/28 00:43:50;;;;;;;2.38;1.40;;;17.30;99.90;;;;;;5007677;28;20046;-78
2023/08/28 00:46:17;;;;;;;5.22;1.60;;;17.30;99.90;;;;;;4998488;28;20077;-78
2023/08/28 00:48:44;;;;;;;4.60;1.27;;;17.30;99.90;;;;;;5004897;28;20077;-78
2023/08/28 00:51:11;;;;;;;2.90;1.33;;;17.30;99.90;;;;;;5006188;28;20042;-79
2023/08/28 00:53:38;;;;;;;3.03;2.33;;;17.30;99.90;;;;;;5004290;28;20046;-79
2023/08/28 00:56:04;;;;;;;3.92;1.63;;;17.30;99.90;;;;;;5004749;28;20104;-79
2023/08/28 00:58:32;;;;;;;4.30;1.48;;;17.30;99.90;;;;;;5009223;28;20127;-79
2023/08/28 01:00:58;;;;;;;8.00;1.60;;;17.30;99.90;;;;;;4997702;28;20046;-78
2023/08/28 01:03:25;;;;;;;5.40;1.45;;;17.30;99.90;;;;;;5005051;28;20053;-77
2023/08/28 01:06:21;;;;;;;3.38;1.63;;;17.30;99.90;;;;;;5010805;28;20049;-78
2023/08/28 01:08:48;;;;;;;5.85;1.60;;;17.30;99.90;;;;;;5001684;28;20046;-77
2023/08/28 01:11:30;;;;;;;2.72;1.25;;;17.30;99.90;;;;;;5005288;28;20101;-78
2023/08/28 01:14:07;;;;;;;5.85;1.42;;;17.30;99.90;;;;;;5004868;28;20116;-78
2023/08/28 01:16:36;;;;;;;3.85;1.77;;;17.30;99.90;;;;;;4997999;28;20173;-78
2023/08/28 01:19:11;;;;;;;3.20;1.40;;;17.30;99.90;;;;;;5005254;28;20054;-78
2023/08/28 01:21:41;;;;;;;4.20;1.67;;;17.30;99.90;;;;;;5003682;28;20046;-78
2023/08/28 01:24:10;;;;;;;4.28;1.33;;;17.30;99.90;;;;;;5001296;28;20096;-78
2023/08/28 01:26:37;;;;;;;5.72;1.90;;;17.30;99.90;;;;;;5005851;28;20042;-77
2023/08/28 01:29:03;;;;;;;5.40;1.40;;;17.30;99.90;;;;;;5000671;28;20054;-78
2023/08/28 01:31:30;;;;;;;3.72;1.40;;;17.20;99.90;;;;;;4997210;28;20514;-79
2023/08/28 01:33:57;;;;;;;4.07;1.63;;;17.30;99.90;;;;;;5004095;28;20100;-77
2023/08/28 01:36:39;;;;;;;4.10;1.80;;;17.20;99.90;;;;;;5007035;28;20444;-78
2023/08/28 01:39:16;;;;;;;5.72;1.60;;;17.20;99.90;;;;;;4999471;28;20046;-78
2023/08/28 01:41:47;;;;;;;5.13;1.65;;;17.20;99.90;;;;;;5004930;28;20142;-79
2023/08/28 01:44:16;;;;;;;6.15;1.50;;;17.30;99.90;;;;;;5008363;28;20109;-78
2023/08/28 01:46:44;;;;;;;4.70;1.40;;;17.20;99.90;;;;;;4995586;28;20522;-76
2023/08/28 01:49:11;;;;;;;3.70;1.23;;;17.20;99.90;;;;;;5006806;28;20530;-78
2023/08/28 01:51:38;;;;;;;4.93;1.40;;;17.20;99.90;;;;;;5010679;28;20037;-78
2023/08/28 01:54:05;;;;;;;2.92;1.70;;;17.20;99.90;;;;;;5000929;28;20050;-77
2023/08/28 01:56:31;;;;;;;5.10;1.77;;;17.20;99.90;;;;;;5006454;28;20053;-78
2023/08/28 01:58:59;;;;;;;3.72;1.65;;;17.20;99.90;;;;;;5010823;28;20045;-78
2023/08/28 02:01:26;;;;;;;4.40;2.05;;;17.10;99.90;;;;;;5003106;28;20041;-78
2023/08/28 02:03:53;;;;;;;2.65;1.45;;;17.20;99.90;;;;;;5010211;28;20045;-78
2023/08/28 02:06:20;;;;;;;2.17;1.55;;;17.10;99.90;;;;;;4996130;28;20050;-77
2023/08/28 02:08:47;;;;;;;2.28;1.45;;;17.10;99.90;;;;;;4986465;28;20052;-78
2023/08/28 02:11:14;;;;;;;6.15;1.45;;;17.10;99.90;;;;;;5007284;28;20544;-79
2023/08/28 02:13:41;;;;;;;4.40;1.90;;;17.10;99.90;;;;;;5012463;28;20111;-79
2023/08/28 02:16:08;;;;;;;2.35;1.65;;;17.10;99.90;;;;;;5003781;28;20042;-78
2023/08/28 02:18:35;;;;;;;4.60;1.80;;;17.10;99.90;;;;;;5010909;28;20046;-78
2023/08/28 02:21:01;;;;;;;2.67;1.67;;;17.00;99.90;;;;;;5010537;28;20070;-79
2023/08/28 02:23:29;;;;;;;3.10;1.60;;;17.00;99.90;;;;;;5003097;28;20058;-78
2023/08/28 02:25:56;;;;;;;4.30;1.80;;;17.00;99.90;;;;;;5005311;28;20108;-78
2023/08/28 02:28:22;;;;;;;2.55;1.63;;;17.00;99.90;;;;;;5011447;28;20045;-78
2023/08/28 02:30:49;;;;;;;8.63;2.90;;;17.00;99.90;;;;;;5007713;28;20120;-77
2023/08/28 02:33:16;;;;;;;2.85;1.58;;;16.90;99.90;;;;;;5008360;28;20112;-78
2023/08/28 02:35:44;;;;;;;3.75;1.83;;;16.90;99.90;;;;;;5011236;28;20053;-79
2023/08/28 02:38:11;;;;;;;4.38;1.90;;;16.90;99.90;;;;;;5008599;28;20051;-78
2023/08/28 02:40:39;;;;;;;5.22;1.80;;;16.80;99.90;;;;;;5003277;28;20042;-78
2023/08/28 02:43:06;;;;;;;2.30;1.70;;;16.80;99.90;;;;;;5010630;28;20046;-78
2023/08/28 02:45:39;;;;;;;6.78;1.85;;;16.80;99.90;;;;;;5011032;28;20058;-78
2023/08/28 02:48:06;;;;;;;4.28;1.83;;;16.70;99.90;;;;;;5004820;28;20046;-78
2023/08/28 02:50:35;;;;;;;5.38;2.00;;;16.70;99.90;;;;;;5009551;28;20057;-79
2023/08/28 02:53:03;;;;;;;1.88;1.67;;;16.70;99.90;;;;;;5003255;28;20042;-79
2023/08/28 02:55:38;;;;;;;6.00;1.83;;;16.70;99.90;;;;;;5003829;28;20045;-79
2023/08/28 02:58:05;;;;;;;4.38;1.88;;;16.60;99.90;;;;;;5007609;28;20520;-77
2023/08/28 03:00:33;;;;;;;3.75;2.00;;;16.60;99.90;;;;;;5010948;28;20054;-78
2023/08/28 03:03:00;;;;;;;4.43;1.90;;;16.60;99.90;;;;;;5006407;28;20049;-78
2023/08/28 03:05:28;;;;;;;6.20;2.20;;;16.50;99.90;;;;;;5009409;28;20537;-78
2023/08/28 03:07:55;;;;;;;4.60;1.90;;;16.50;99.90;;;;;;5008039;28;20054;-79
2023/08/28 03:10:22;;;;;;;2.70;1.90;;;16.50;99.90;;;;;;4999945;28;20047;-78
2023/08/28 03:12:49;;;;;;;2.30;1.50;;;16.40;99.90;;;;;;5009392;28;20049;-78
2023/08/28 03:15:16;;;;;;;4.65;2.13;;;16.40;99.90;;;;;;5009965;28;20093;-78
2023/08/28 03:17:42;;;;;;;3.45;1.83;;;16.40;99.90;;;;;;5006733;28;20391;-77
2023/08/28 03:20:10;;;;;;;3.88;2.33;;;16.40;99.90;;;;;;5007851;28;20046;-79
2023/08/28 03:22:36;;;;;;;4.43;2.00;;;16.30;99.90;;;;;;4992506;28;20528;-78
2023/08/28 03:25:04;;;;;;;3.67;2.03;;;16.30;99.90;;;;;;5000971;28;20535;-78
2023/08/28 03:27:32;;;;;;;7.43;2.22;;;16.30;99.90;;;;;;5007492;28;20050;-78
2023/08/28 03:29:58;;;;;;;3.15;1.80;;;16.20;99.90;;;;;;5011922;28;20049;-78
2023/08/28 03:32:25;;;;;;;3.70;2.20;;;16.20;99.90;;;;;;5005251;28;20494;-78
2023/08/28 03:34:53;;;;;;;5.50;2.17;;;16.10;99.90;;;;;;5006688;28;20050;-78
2023/08/28 03:37:20;;;;;;;3.92;1.90;;;16.10;99.90;;;;;;5012686;28;20046;-78
2023/08/28 03:39:46;;;;;;;3.63;2.15;;;16.20;99.90;;;;;;5000448;28;20505;-78
2023/08/28 03:42:13;;;;;;;4.18;2.00;;;16.10;99.90;;;;;;5007256;28;20049;-78
2023/08/28 03:44:40;;;;;;;4.30;2.30;;;16.10;99.90;;;;;;5011700;28;20583;-79
2023/08/28 03:47:06;;;;;;;5.22;2.28;;;16.10;99.90;;;;;;5001121;28;20045;-78
2023/08/28 03:49:33;;;;;;;4.25;2.15;;;16.10;99.90;;;;;;5005841;28;20104;-78
2023/08/28 03:52:00;;;;;;;4.18;2.17;;;16.00;99.90;;;;;;5011736;28;20096;-78
2023/08/28 03:54:28;;;;;;;3.80;2.55;;;16.00;99.90;;;;;;5000950;28;20050;-77
2023/08/28 03:56:54;;;;;;;5.32;2.17;;;16.00;99.90;;;;;;5003413;28;20042;-78
2023/08/28 03:59:22;;;;;;;6.57;2.00;;;16.10;99.90;;;;;;5011695;28;20049;-78
2023/08/28 04:01:49;;;;;;;3.20;2.40;;;16.10;99.90;;;;;;5006776;28;20045;-77
2023/08/28 04:04:16;;;;;;;4.60;2.10;;;16.10;99.90;;;;;;5002499;28;20096;-78
2023/08/28 04:06:43;;;;;;;4.80;2.45;;;16.00;99.90;;;;;;5009203;28;20612;-78
2023/08/28 04:09:10;;;;;;;7.05;2.50;;;16.10;99.90;;;;;;5005226;28;20049;-77
2023/08/28 04:11:37;;;;;;;4.18;2.30;;;16.10;99.90;;;;;;5003212;28;20469;-78
2023/08/28 04:14:03;;;;;;;6.00;2.80;;;16.00;99.90;;;;;;4992942;28;20114;-77
2023/08/28 04:16:30;;;;;;;4.15;2.47;;;16.00;99.90;;;;;;5009015;28;20058;-78
2023/08/28 04:18:57;;;;;;;4.65;2.53;;;16.00;99.90;;;;;;5005623;28;20045;-79
2023/08/28 04:21:23;;;;;;;6.90;2.60;;;16.00;99.90;;;;;;5008281;28;20100;-78
2023/08/28 04:23:50;;;;;;;10.82;2.88;;;16.00;99.90;;;;;;5003584;28;20043;-78
2023/08/28 04:26:17;;;;;;;5.45;2.60;;;16.00;99.90;;;;;;4998380;28;20039;-77
2023/08/28 04:28:44;;;;;;;6.85;2.60;;;15.90;99.90;;;;;;5010151;28;20077;-78
2023/08/28 04:31:11;;;;;;;4.68;3.08;;;15.90;99.90;;;;;;5007808;28;20043;-78
2023/08/28 04:33:38;;;;;;;4.43;2.53;;;15.90;99.90;;;;;;5003659;28;20418;-79
2023/08/28 04:36:05;;;;;;;3.65;2.28;;;16.00;99.90;;;;;;5005813;28;20053;-78
2023/08/28 04:38:32;;;;;;;5.72;2.60;;;15.90;99.90;;;;;;5008074;28;20077;-78
2023/08/28 04:40:59;;;;;;;3.67;2.40;;;16.00;99.90;;;;;;4999498;28;20081;-78
2023/08/28 04:43:25;;;;;;;4.32;2.60;;;16.00;99.90;;;;;;5009098;28;20061;-78
2023/08/28 04:45:52;;;;;;;6.00;2.58;;;16.00;99.90;;;;;;5008213;28;20077;-78
2023/08/28 04:48:19;;;;;;;4.38;2.47;;;16.00;99.90;;;;;;5003330;28;20069;-78
2023/08/28 04:50:46;;;;;;;6.82;2.22;;;15.90;99.90;;;;;;5004471;28;20488;-78
2023/08/28 04:53:12;;;;;;;6.28;2.15;;;15.90;99.90;;;;;;5008403;28;20105;-77
2023/08/28 04:55:39;;;;;;;11.05;2.20;;;15.90;99.90;;;;;;5002804;28;20078;-78
2023/08/28 04:58:06;;;;;;;4.13;1.70;;;15.80;99.90;;;;;;5006981;28;20042;-78
2023/08/28 05:00:33;;;;;;;5.45;2.40;;;15.80;99.90;;;;;;5009046;28;20050;-78
2023/08/28 05:03:00;;;;;;;3.97;1.75;;;15.80;99.90;;;;;;5000559;28;20112;-78
2023/08/28 05:05:27;;;;;;;3.85;2.03;;;15.80;99.90;;;;;;5003889;28;20514;-78
2023/08/28 05:07:54;;;;;;;4.22;2.00;;;15.70;99.90;;;;;;5008996;28;20049;-77
2023/08/28 05:10:21;;;;;;;4.35;1.98;;;15.70;99.90;;;;;;5000175;28;20122;-78
2023/08/28 05:12:47;;;;;;;1.75;1.35;;;15.60;99.90;;;;;;5007247;28;20053;-78
2023/08/28 05:15:14;;;;;;;7.40;2.63;;;15.50;99.90;;;;;;5010803;28;20049;-77
2023/08/28 05:17:41;;;;;;;3.38;1.90;;;15.60;99.90;;;;;;5001964;28;20042;-79
2023/08/28 05:20:08;;;;;;;4.68;1.58;;;15.60;99.90;;;;;;5005575;28;20425;-78
2023/08/28 05:22:35;;;;;;;2.20;1.63;;;15.50;99.90;;;;;;5006197;28;20053;-79
2023/08/28 05:25:02;;;;;;;5.25;1.77;;;15.60;99.90;;;;;;5000895;28;20146;-78
2023/08/28 05:27:28;;;;;;;2.97;1.10;;;15.50;99.90;;;;;;5006025;28;20071;-78
2023/08/28 05:29:55;;;;;;;3.38;1.48;;;15.60;99.90;;;;;;5009106;28;20049;-78
2023/08/28 05:32:22;;;;;;;3.72;1.45;;;15.60;99.90;;;;;;5002067;28;20042;-78
2023/08/28 05:34:49;;;;;;;3.47;1.65;;;15.60;99.90;;;;;;5006455;28;20125;-79
2023/08/28 05:37:18;;;;;;;2.78;1.58;;;15.60;99.90;;;;;;5011668;28;20050;-78
2023/08/28 05:39:44;;;;;;;5.30;1.63;;;15.60;99.90;;;;;;5009255;28;20046;-78
2023/08/28 05:42:11;;;;;;;7.07;1.58;;;15.60;99.90;;;;;;5008652;28;20050;-78
2023/08/28 05:44:38;;;;;;;2.55;1.27;;;15.60;99.90;;;;;;5011886;28;20049;-78
2023/08/28 05:47:05;;;;;;;3.65;1.80;;;15.60;99.90;;;;;;5003306;28;20093;-77
2023/08/28 05:49:31;;;;;;;3.60;1.30;;;15.60;99.90;;;;;;5005097;28;20042;-78
2023/08/28 05:51:58;;;;;;;4.57;1.40;;;15.60;99.90;;;;;;5010364;28;20043;-78
2023/08/28 05:54:25;;;;;;;3.30;1.65;;;15.70;99.90;;;;;;5012431;28;20469;-78
2023/08/28 05:56:52;;;;;;;1.67;1.38;;;15.70;99.90;;;;;;5009532;28;20042;-79
2023/08/28 05:59:19;;;;;;;3.95;1.70;;;15.70;99.90;;;;;;5011143;28;20470;-78
2023/08/28 06:01:45;;;;;;;4.05;1.70;;;15.80;99.90;;;;;;4991886;28;20045;-78
2023/08/28 06:04:12;;;;;;;5.47;1.90;;;15.80;99.90;;;;;;5008460;28;20046;-78
2023/08/28 06:06:39;;;;;;;2.67;2.00;;;15.80;99.90;;;;;;5011843;28;20088;-78
2023/08/28 06:09:07;;;;;;;4.53;2.17;;;15.90;99.90;;;;;;5014199;28;20088;-79
2023/08/28 06:11:34;;;;;;;3.88;2.05;;;15.90;99.90;;;;;;5009066;28;20061;-78
2023/08/28 06:14:01;;;;;;;3.35;1.90;;;15.80;99.90;;;;;;5010242;28;20097;-78
2023/08/28 06:16:27;;;;;;;6.25;2.10;;;15.80;99.90;;;;;;5012025;28;20054;-78
2023/08/28 06:18:54;;;;;;;3.13;1.92;;;15.80;99.90;;;;;;4988172;28;20053;-77
2023/08/28 06:21:21;;;;;;;3.45;2.20;;;15.80;99.90;;;;;;5008253;28;20077;-78
2023/08/28 06:23:48;;;;;;;5.63;3.00;;;15.80;99.90;;;;;;5013578;28;20449;-78
2023/08/28 06:26:15;;;;;;;4.32;2.08;;;15.90;99.90;;;;;;5008969;28;20105;-78
2023/08/28 06:28:41;;;;;;;6.30;2.67;;;16.00;99.90;;;;;;5008934;28;20080;-78
2023/08/28 06:31:08;;;;;;;4.78;2.20;;;16.00;99.90;;;;;;5012336;28;20057;-78
2023/08/28 06:33:35;;;;;;;3.63;2.60;;;16.00;99.90;;;;;;4997972;28;20668;-78
2023/08/28 06:36:02;;;;;;;5.93;2.38;;;16.10;99.90;;;;;;5008425;28;20096;-78
2023/08/28 06:38:29;;;;;;;4.13;2.00;;;16.00;99.90;;;;;;5001838;28;20046;-79
2023/08/28 06:40:56;;;;;;;3.63;2.10;;;16.00;99.90;;;;;;4988475;28;20188;-78
2023/08/28 06:43:22;;;;;;;5.03;2.28;;;15.90;99.90;;;;;;5007086;28;20058;-78
2023/08/28 06:45:49;;;;;;;3.35;2.28;;;15.90;99.90;;;;;;5003674;28;20053;-78
2023/08/28 06:48:16;;;;;;;5.32;2.25;;;15.90;99.90;;;;;;5004755;28;20104;-78
2023/08/28 06:50:42;;;;;;;2.83;2.03;;;15.90;99.90;;;;;;5006503;28;20421;-78
2023/08/28 06:53:09;;;;;;;7.00;2.25;;;15.90;99.90;;;;;;5005925;28;20054;-78
2023/08/28 06:55:36;;;;;;;6.60;2.33;;;16.00;99.90;;;;;;5004296;28;20192;-77
2023/08/28 06:58:03;;;;;;;3.42;1.95;;;16.00;99.90;;;;;;5004767;28;20145;-79
2023/08/28 07:00:30;;;;;;;3.90;2.20;;;16.00;99.90;;;;;;4987945;28;20554;-78
2023/08/28 07:02:58;;;;;;;3.70;2.30;;;16.00;99.90;;;;;;5007726;28;20049;-78
2023/08/28 07:05:25;;;;;;;3.33;2.10;;;16.00;99.90;;;;;;5005777;28;20124;-78
2023/08/28 07:07:52;;;;;;;3.83;2.30;;;16.00;99.90;;;;;;5005212;28;20072;-78
2023/08/28 07:10:18;;;;;;;4.63;2.35;;;16.10;99.90;;;;;;5001667;28;20053;-79
2023/08/28 07:12:45;;;;;;;3.40;2.25;;;16.10;99.90;;;;;;5006129;28;20042;-78
2023/08/28 07:15:18;;;;;;;5.18;2.47;;;16.20;99.90;;;;;;5007802;28;20402;-78
2023/08/28 07:17:45;;;;;;;2.83;2.20;;;16.10;99.90;;;;;;4998848;28;20050;-78
2023/08/28 07:20:12;;;;;;;5.35;2.10;;;16.10;99.90;;;;;;5007698;28;20050;-78
2023/08/28 07:22:39;;;;;;;3.10;2.40;;;16.10;99.90;;;;;;5007345;28;20432;-78
2023/08/28 07:25:06;;;;;;;6.97;2.67;;;16.00;99.90;;;;;;5005646;28;20536;-78
2023/08/28 07:27:33;;;;;;;2.30;1.83;;;16.10;99.90;;;;;;5003645;28;20101;-79
2023/08/28 07:30:04;;;;;;;5.05;2.30;;;16.10;99.90;;;;;;4988355;28;20041;-78
2023/08/28 07:32:32;;;;;;;5.85;2.40;;;16.10;99.90;;;;;;5006572;28;20575;-79
2023/08/28 07:35:00;;;;;;;6.35;2.20;;;16.00;99.90;;;;;;5004742;28;20053;-78
2023/08/28 07:37:30;;;;;;;4.28;2.05;;;16.00;99.90;;;;;;5003462;28;20042;-78
2023/08/28 07:39:57;;;;;;;3.80;2.22;;;16.00;99.90;;;;;;5005024;28;20054;-78
2023/08/28 07:42:24;;;;;;;4.80;2.20;;;16.00;99.90;;;;;;5005352;28;20112;-78
2023/08/28 07:44:51;;;;;;;3.00;2.10;;;16.20;99.90;;;;;;4999582;28;20104;-79
2023/08/28 07:47:19;;;;;;;5.10;2.10;;;16.20;99.90;;;;;;5004381;28;20136;-78
2023/08/28 07:49:46;;;;;;;5.30;2.00;;;16.20;99.90;;;;;;4996568;28;20421;-79
2023/08/28 07:52:13;;;;;;;3.00;2.08;;;16.20;99.90;;;;;;5004480;28;20436;-78
2023/08/28 07:54:39;;;;;;;5.53;2.38;;;16.20;99.90;;;;;;5003346;28;20050;-78
2023/08/28 07:57:07;;;;;;;2.75;2.03;;;16.20;99.90;;;;;;5006112;28;20138;-79
2023/08/28 07:59:33;;;;;;;2.72;2.13;;;16.20;99.90;;;;;;5005156;28;20084;-79
2023/08/28 08:02:01;;;;;;;3.58;2.20;;;16.20;99.90;;;;;;5004102;28;20097;-78
2023/08/28 08:04:27;;;;;;;4.00;2.22;;;16.20;99.90;;;;;;5005542;28;20089;-78
2023/08/28 08:06:55;;;;;;;4.18;2.13;;;16.10;99.90;;;;;;5004976;28;20120;-78
2023/08/28 08:09:22;;;;;;;4.88;2.38;;;16.20;99.90;;;;;;5003502;28;20430;-77
2023/08/28 08:11:49;;;;;;;2.55;2.05;;;16.20;99.90;;;;;;5004363;28;20084;-78
2023/08/28 08:14:17;;;;;;;3.75;2.50;;;16.20;99.90;;;;;;5005667;28;20054;-78
2023/08/28 08:16:44;;;;;;;3.70;2.33;;;16.20;99.90;;;;;;5010150;28;20073;-78
2023/08/28 08:19:10;;;;;;;5.72;2.95;;;16.30;99.90;;;;;;5002478;28;20494;-78
2023/08/28 08:21:37;;;;;;;6.78;2.53;;;16.30;99.90;;;;;;5007996;28;20076;-78
2023/08/28 08:24:04;;;;;;;4.53;2.60;;;16.30;99.90;;;;;;5010893;28;20560;-78
2023/08/28 08:26:33;;;;;;;4.63;2.30;;;16.30;99.90;;;;;;5001079;28;20058;-78
2023/08/28 08:29:00;;;;;;;4.57;2.70;;;16.40;99.90;;;;;;5002914;28;20047;-78
2023/08/28 08:31:30;;;;;;;4.03;2.53;;;16.30;99.90;;;;;;5009210;28;20157;-78
2023/08/28 08:33:57;;;;;;;6.07;3.00;;;16.30;99.90;;;;;;4996212;28;20077;-78
2023/08/28 08:36:24;;;;;;;3.88;2.15;;;16.30;99.90;;;;;;5005869;28;20088;-77
2023/08/28 08:38:51;;;;;;;5.03;2.80;;;16.30;99.90;;;;;;5009772;28;20038;-78
2023/08/28 08:41:17;;;;;;;3.90;2.45;;;16.30;99.90;;;;;;4986678;28;20073;-79
2023/08/28 08:43:44;;;;;;;2.47;2.20;;;16.20;99.90;;;;;;5002444;28;20058;-78
2023/08/28 08:46:11;;;;;;;2.78;2.45;;;16.20;99.90;;;;;;5008201;28;20073;-79
2023/08/28 08:48:41;;;;;;;5.40;2.58;;;16.20;99.90;;;;;;5006647;28;20061;-78
2023/08/28 08:51:09;;;;;;;5.43;2.43;;;16.20;99.90;;;;;;5005613;28;20418;-77
2023/08/28 08:54:09;;;;;;;5.22;2.63;;;16.20;99.90;;;;;;5008052;28;20704;-79
2023/08/28 08:56:37;;;;;;;4.68;2.63;;;16.10;99.90;;;;;;5007291;28;20133;-79
2023/08/28 08:59:04;;;;;;;6.60;2.65;;;16.10;99.90;;;;;;5004510;28;20054;-78
2023/08/28 09:01:31;;;;;;;7.05;2.90;;;16.10;99.90;;;;;;5005457;28;20066;-78
2023/08/28 09:03:59;;;;;;;4.28;2.85;;;16.00;99.90;;;;;;4999827;28;20046;-78
2023/08/28 09:06:29;;;;;;;2.75;2.00;;;16.00;99.90;;;;;;5003465;28;20050;-78
2023/08/28 09:08:56;;;;;;;5.05;2.45;;;15.90;99.90;;;;;;5009224;28;20129;-79
2023/08/28 09:11:26;;;;;;;5.25;2.88;;;15.90;99.90;;;;;;5009072;28;20498;-78
2023/08/28 09:13:53;;;;;;;3.28;2.33;;;15.90;99.90;;;;;;5006609;28;20521;-78
2023/08/28 09:16:20;;;;;;;4.22;2.55;;;15.90;99.90;;;;;;5007321;28;20046;-78
2023/08/28 09:18:47;;;;;;;6.75;2.67;;;15.90;99.90;;;;;;5008582;28;20061;-79
2023/08/28 09:21:14;;;;;;;6.05;2.67;;;16.00;99.90;;;;;;5002580;28;20425;-78
2023/08/28 09:23:41;;;;;;;4.63;2.60;;;16.00;99.90;;;;;;5009858;28;20474;-78
2023/08/28 09:26:16;;;;;;;9.65;2.75;;;16.10;99.90;;;;;;5009701;28;20053;-78
2023/08/28 09:28:58;;;;;;;5.65;2.60;;;16.20;99.90;;;;;;5006292;28;20054;-79
2023/08/28 09:31:42;;;;;;;6.35;2.80;;;16.10;99.90;;;;;;5010894;28;20045;-78
2023/08/28 09:34:09;;;;;;;4.28;2.47;;;16.20;99.90;;;;;;5012228;28;20097;-78
2023/08/28 09:36:37;;;;;;;7.20;2.70;;;16.20;99.90;;;;;;5007054;28;20050;-78
2023/08/28 09:39:09;;;;;;;7.45;2.67;;;16.20;99.90;;;;;;5011576;28;20418;-78
2023/08/28 09:41:47;;;;;;;6.35;2.60;;;16.20;99.90;;;;;;5007140;28;20046;-79
2023/08/28 09:44:16;;;;;;;5.88;2.70;;;16.20;99.90;;;;;;5004575;28;20056;-78
2023/08/28 09:46:43;;;;;;;4.25;2.55;;;16.20;99.90;;;;;;5009776;28;20050;-79
2023/08/28 09:49:13;;;;;;;3.72;2.28;;;16.30;99.90;;;;;;5009627;28;20046;-78
2023/08/28 09:51:42;;;;;;;5.50;2.92;;;16.40;99.90;;;;;;5007688;28;20100;-78
2023/08/28 09:54:10;;;;;;;6.18;2.60;;;16.40;99.90;;;;;;5010989;28;20494;-77
2023/08/28 09:56:38;;;;;;;5.00;2.40;;;16.50;99.90;;;;;;5006862;28;20070;-78
2023/08/28 09:59:09;;;;;;;5.30;2.20;;;16.60;99.90;;;;;;4998854;28;20057;-79
2023/08/28 10:01:37;;;;;;;2.92;2.20;;;16.60;99.90;;;;;;5011990;28;20057;-79
2023/08/28 10:04:13;;;;;;;5.57;2.42;;;16.60;99.90;;;;;;5010368;28;20045;-78
2023/08/28 10:06:47;;;;;;;4.05;2.47;;;16.60;99.90;;;;;;5008980;28;20093;-78
2023/08/28 10:09:18;;;;;;;2.90;2.20;;;16.50;99.90;;;;;;5012487;28;20046;-78
2023/08/28 10:11:46;;;;;;;5.88;2.25;;;16.50;99.90;;;;;;4999680;28;20082;-78
2023/08/28 10:14:14;;;;;;;5.20;2.50;;;16.60;99.90;;;;;;5001491;28;20042;-76
2023/08/28 10:17:04;;;;;;;5.05;3.40;;;16.50;99.90;;;;;;5000810;28;20109;-78
2023/08/28 10:19:38;;;;;;;4.47;2.88;;;16.60;99.90;;;;;;4989393;28;20454;-77
2023/08/28 10:22:09;;;;;;;7.88;2.53;;;16.70;99.90;;;;;;5000437;28;20508;-78
2023/08/28 10:24:38;;;;;;;7.32;2.65;;;16.70;99.90;;;;;;5009997;28;20522;-78
2023/08/28 10:27:07;;;;;;;3.05;2.25;;;16.70;99.90;;;;;;5005726;28;20125;-78
2023/08/28 10:29:34;;;;;;;3.88;2.38;;;16.70;99.90;;;;;;5006021;28;20054;-78
2023/08/28 10:32:03;;;;;;;8.60;2.67;;;16.70;99.90;;;;;;5011872;28;20042;-78
2023/08/28 10:34:31;;;;;;;5.13;2.60;;;16.60;99.90;;;;;;5005510;28;20082;-78
2023/08/28 10:37:01;;;;;;;3.40;2.25;;;16.60;99.90;;;;;;5005001;28;20042;-79
2023/08/28 10:39:49;;;;;;;6.88;2.60;;;16.60;99.90;;;;;;5011721;28;20050;-78
2023/08/28 10:42:20;;;;;;;3.83;2.20;;;16.50;99.90;;;;;;5007696;28;20058;-78
2023/08/28 10:44:47;;;;;;;6.35;2.60;;;16.50;99.90;;;;;;5007948;28;20052;-79
2023/08/28 10:47:16;;;;;;;3.35;2.15;;;16.50;99.90;;;;;;5012173;28;20057;-79
2023/08/28 10:49:42;;;;;;;6.00;2.10;;;16.50;99.90;;;;;;5008944;28;20050;-77
2023/08/28 10:52:10;;;;;;;6.13;2.30;;;16.50;99.90;;;;;;5002314;28;20049;-78
2023/08/28 10:54:39;;;;;;;5.00;2.58;;;16.60;99.90;;;;;;5009321;28;20112;-78
2023/08/28 10:57:20;;;;;;;3.92;1.92;;;16.60;99.90;;;;;;5000632;28;20051;-78
2023/08/28 10:59:49;;;;;;;3.90;1.95;;;16.70;99.90;;;;;;4997143;28;20120;-78
2023/08/28 11:02:16;;;;;;;3.30;1.92;;;16.80;99.90;;;;;;5010488;28;20050;-78
2023/08/28 11:04:43;;;;;;;5.57;2.13;;;16.80;99.90;;;;;;5007048;28;20104;-78
2023/08/28 11:07:21;;;;;;;5.65;2.85;;;16.80;99.90;;;;;;5002213;28;20074;-78
2023/08/28 11:09:49;;;;;;;5.85;1.90;;;16.80;99.90;;;;;;5009541;28;20054;-78
2023/08/28 11:12:23;;;;;;;7.78;2.00;;;16.90;99.90;;;;;;5003316;28;20038;-78
2023/08/28 11:14:52;;;;;;;5.35;2.35;;;17.00;99.90;;;;;;5008745;28;20052;-78
2023/08/28 11:17:20;;;;;;;;;;;17.00;99.90;;;;;;5010267;28;20100;-79
2023/08/28 11:19:54;;;;;;;3.88;2.40;;;17.20;99.90;;;;;;5006786;28;19984;-78
2023/08/28 11:22:40;;;;;;;5.05;2.63;;;17.20;99.90;;;;;;5002883;28;20096;-78
2023/08/28 11:25:14;;;;;;;3.00;2.70;;;17.30;99.90;;;;;;5009225;28;20490;-78
2023/08/28 11:27:46;;;;;;;5.65;2.22;;;17.30;99.90;;;;;;5007777;28;20510;-78
2023/08/28 11:30:14;;;;;;;3.63;2.03;;;17.30;99.90;;;;;;5007178;28;20096;-79
2023/08/28 11:32:44;;;;;;;3.83;1.75;;;17.30;99.90;;;;;;5010075;28;20046;-78
2023/08/28 11:35:16;;;;;;;2.90;1.75;;;17.40;99.90;;;;;;5002106;28;20049;-78
2023/08/28 11:37:50;;;;;;;4.88;2.10;;;17.50;99.90;;;;;;5003149;28;20434;-78
2023/08/28 11:40:19;;;;;;;4.13;2.28;;;17.50;99.90;;;;;;5010140;28;20038;-78
2023/08/28 11:42:50;;;;;;;5.10;2.10;;;17.60;99.90;;;;;;5006821;28;20054;-78
2023/08/28 11:45:21;;;;;;;5.75;2.17;;;17.60;99.90;;;;;;5006230;28;20054;-78
2023/08/28 11:47:52;;;;;;;3.35;2.03;;;17.70;99.90;;;;;;5009910;28;20077;-78
2023/08/28 11:50:19;;;;;;;4.22;2.28;;;17.70;99.90;;;;;;5006356;28;20564;-79
2023/08/28 11:52:49;;;;;;;2.17;1.92;;;17.80;99.90;;;;;;5004473;28;20125;-78
2023/08/28 11:55:16;;;;;;;6.45;2.50;;;17.80;99.90;;;;;;5009198;28;20084;-78
2023/08/28 11:57:44;;;;;;;5.15;1.98;;;17.80;99.90;;;;;;5006314;28;20101;-78
2023/08/28 12:00:15;;;;;;;4.22;2.40;;;17.80;99.90;;;;;;5005828;28;20042;-78
2023/08/28 12:02:43;;;;;;;6.35;2.13;;;17.70;99.90;;;;;;5006396;28;20410;-78
2023/08/28 12:05:12;;;;;;;4.72;2.63;;;17.70;99.90;;;;;;5004388;28;20395;-77
2023/08/28 12:07:43;;;;;;;6.82;2.30;;;17.70;99.90;;;;;;5001250;28;20078;-78
2023/08/28 12:10:15;;;;;;;3.65;2.55;;;17.50;99.90;;;;;;5007609;28;20057;-78
2023/08/28 12:12:42;;;;;;;2.50;2.20;;;17.50;99.90;;;;;;5000729;28;20047;-78
2023/08/28 12:15:10;;;;;;;4.43;2.42;;;17.40;99.90;;;;;;5004119;28;20045;-77
2023/08/28 12:17:40;;;;;;;5.90;2.25;;;17.40;99.90;;;;;;5006242;28;20050;-78
2023/08/28 12:20:19;;;;;;;4.70;2.38;;;17.30;99.90;;;;;;5004712;28;20042;-77
2023/08/28 12:22:46;;;;;;;4.55;2.25;;;17.40;99.90;;;;;;5001985;28;20061;-78
2023/08/28 12:25:13;;;;;;;4.88;2.40;;;17.40;99.90;;;;;;5008612;28;20129;-78
2023/08/28 12:27:39;;;;;;;3.95;2.00;;;17.40;99.90;;;;;;5008157;28;20052;-78
2023/08/28 12:30:17;;;;;;;5.95;2.28;;;17.40;99.90;;;;;;5004983;28;20050;-78
2023/08/28 12:32:51;;;;;;;3.65;2.30;;;17.50;99.90;;;;;;5006184;28;20533;-78
2023/08/28 12:35:20;;;;;;;5.80;2.33;;;17.60;99.90;;;;;;4999984;28;20126;-77
2023/08/28 12:37:49;;;;;;;4.30;2.47;;;17.60;99.90;;;;;;5001387;28;20406;-78
2023/08/28 12:40:16;;;;;;;5.20;2.78;;;17.60;99.90;;;;;;5008336;28;20072;-78
2023/08/28 12:42:42;;;;;;;7.00;2.30;;;17.60;99.90;;;;;;5007342;28;20057;-77
2023/08/28 12:45:10;;;;;;;4.75;2.50;;;17.60;99.90;;;;;;5003522;28;20046;-77
2023/08/28 12:47:40;;;;;;;4.40;2.17;;;17.60;99.90;;;;;;5003692;28;20046;-78
2023/08/28 12:50:09;;;;;;;4.35;2.53;;;17.60;99.90;;;;;;5004730;28;20052;-77
2023/08/28 12:52:37;;;;;;;4.65;2.53;;;17.50;99.90;;;;;;4999881;28;20058;-77
2023/08/28 12:55:04;;;;;;;5.75;2.50;;;17.60;99.90;;;;;;5007948;28;20077;-78